Hudson, South Dakota
Current Conditions -  °F | °C
As of 6:35 PM on Friday 19 Dec 2014 (Local Time) from KORC Reporting Station
Overcast Overcast  
Wind Chill: 23°   Ceiling: 1200
Heat Index: 32°   Visibility: 7mi
Dew Point: 27°   Wind: 12mph
Humidity: 80%   Direction: 190°S
Pressure: 30.11"   Gusts: NA
Location:  43.13°N, 96.45°W
Report Text: KORC 200035Z AUTO 19010KT 7SM OVC012 00/M03 A3011 RMK AO2
Loading
Personal Weather Stations






























Interactive Weather Map New forecast layout! Learn more

10-Day Weather Forecast

Advertisements
Track Severe Weather on mobile